sensor_id;sensor_type;location;lat;lon;timestamp;P1;durP1;ratioP1;P2;durP2;ratioP2
63193;SDS011;49289;51.670;5.624;2022-11-23T00:00:45;9.80;;;3.70;;
63193;SDS011;49289;51.670;5.624;2022-11-23T00:02:32;8.20;;;3.40;;
63193;SDS011;49289;51.670;5.624;2022-11-23T00:04:20;7.80;;;3.40;;
63193;SDS011;49289;51.670;5.624;2022-11-23T00:06:07;7.90;;;3.50;;
63193;SDS011;49289;51.670;5.624;2022-11-23T00:07:55;9.00;;;3.60;;
63193;SDS011;49289;51.670;5.624;2022-11-23T00:09:43;9.10;;;3.60;;
63193;SDS011;49289;51.670;5.624;2022-11-23T00:11:32;9.40;;;3.60;;
63193;SDS011;49289;51.670;5.624;2022-11-23T00:13:20;12.80;;;3.60;;
63193;SDS011;49289;51.670;5.624;2022-11-23T00:15:08;10.10;;;3.60;;
63193;SDS011;49289;51.670;5.624;2022-11-23T00:16:56;10.70;;;4.10;;
63193;SDS011;49289;51.670;5.624;2022-11-23T00:18:44;10.40;;;3.80;;
63193;SDS011;49289;51.670;5.624;2022-11-23T00:20:32;10.00;;;3.30;;
63193;SDS011;49289;51.670;5.624;2022-11-23T00:22:21;8.10;;;3.50;;
63193;SDS011;49289;51.670;5.624;2022-11-23T00:24:09;10.90;;;3.80;;
63193;SDS011;49289;51.670;5.624;2022-11-23T00:25:56;9.80;;;3.70;;
63193;SDS011;49289;51.670;5.624;2022-11-23T00:27:44;8.20;;;3.70;;
63193;SDS011;49289;51.670;5.624;2022-11-23T00:29:33;9.80;;;3.80;;
63193;SDS011;49289;51.670;5.624;2022-11-23T00:31:21;12.10;;;3.50;;
63193;SDS011;49289;51.670;5.624;2022-11-23T00:33:09;8.70;;;3.70;;
63193;SDS011;49289;51.670;5.624;2022-11-23T00:34:57;12.10;;;3.40;;
63193;SDS011;49289;51.670;5.624;2022-11-23T00:36:44;10.60;;;3.60;;
63193;SDS011;49289;51.670;5.624;2022-11-23T00:38:33;13.00;;;4.00;;
63193;SDS011;49289;51.670;5.624;2022-11-23T00:40:21;11.10;;;3.50;;
63193;SDS011;49289;51.670;5.624;2022-11-23T00:42:08;9.80;;;3.40;;
63193;SDS011;49289;51.670;5.624;2022-11-23T00:43:55;10.90;;;3.30;;
63193;SDS011;49289;51.670;5.624;2022-11-23T00:45:42;13.50;;;3.40;;
63193;SDS011;49289;51.670;5.624;2022-11-23T00:47:29;9.00;;;3.20;;
63193;SDS011;49289;51.670;5.624;2022-11-23T00:49:16;8.50;;;3.00;;
63193;SDS011;49289;51.670;5.624;2022-11-23T00:51:04;7.50;;;3.20;;
63193;SDS011;49289;51.670;5.624;2022-11-23T00:52:51;11.40;;;3.30;;
63193;SDS011;49289;51.670;5.624;2022-11-23T00:54:38;9.00;;;2.90;;
63193;SDS011;49289;51.670;5.624;2022-11-23T00:56:25;11.60;;;3.40;;
63193;SDS011;49289;51.670;5.624;2022-11-23T00:58:12;8.50;;;2.70;;
63193;SDS011;49289;51.670;5.624;2022-11-23T00:59:59;12.00;;;3.00;;
63193;SDS011;49289;51.670;5.624;2022-11-23T01:01:47;7.30;;;2.80;;
63193;SDS011;49289;51.670;5.624;2022-11-23T01:03:35;8.20;;;2.40;;
63193;SDS011;49289;51.670;5.624;2022-11-23T01:05:22;8.40;;;2.60;;
63193;SDS011;49289;51.670;5.624;2022-11-23T01:07:09;8.70;;;2.70;;
63193;SDS011;49289;51.670;5.624;2022-11-23T01:08:57;9.60;;;2.80;;
63193;SDS011;49289;51.670;5.624;2022-11-23T01:10:43;8.90;;;2.70;;
63193;SDS011;49289;51.670;5.624;2022-11-23T01:12:32;9.30;;;2.70;;
63193;SDS011;49289;51.670;5.624;2022-11-23T01:14:20;10.00;;;2.70;;
63193;SDS011;49289;51.670;5.624;2022-11-23T01:16:09;7.30;;;2.60;;
63193;SDS011;49289;51.670;5.624;2022-11-23T01:17:56;9.40;;;2.60;;
63193;SDS011;49289;51.670;5.624;2022-11-23T01:19:43;7.50;;;2.50;;
63193;SDS011;49289;51.670;5.624;2022-11-23T01:21:32;8.70;;;2.80;;
63193;SDS011;49289;51.670;5.624;2022-11-23T01:23:19;8.50;;;2.60;;
63193;SDS011;49289;51.670;5.624;2022-11-23T01:25:08;9.60;;;2.80;;
63193;SDS011;49289;51.670;5.624;2022-11-23T01:26:55;7.40;;;2.10;;
63193;SDS011;49289;51.670;5.624;2022-11-23T01:28:42;9.90;;;2.60;;
63193;SDS011;49289;51.670;5.624;2022-11-23T01:30:29;8.20;;;2.50;;
63193;SDS011;49289;51.670;5.624;2022-11-23T01:32:16;11.10;;;2.90;;
63193;SDS011;49289;51.670;5.624;2022-11-23T01:34:03;6.90;;;2.60;;
63193;SDS011;49289;51.670;5.624;2022-11-23T01:35:50;5.70;;;2.40;;
63193;SDS011;49289;51.670;5.624;2022-11-23T01:37:38;10.30;;;2.30;;
63193;SDS011;49289;51.670;5.624;2022-11-23T01:39:27;7.80;;;2.10;;
63193;SDS011;49289;51.670;5.624;2022-11-23T01:41:16;12.20;;;2.90;;
63193;SDS011;49289;51.670;5.624;2022-11-23T01:43:03;7.20;;;2.10;;
63193;SDS011;49289;51.670;5.624;2022-11-23T01:44:50;4.50;;;2.10;;
63193;SDS011;49289;51.670;5.624;2022-11-23T01:46:37;9.90;;;2.50;;
63193;SDS011;49289;51.670;5.624;2022-11-23T01:48:25;7.60;;;2.10;;
63193;SDS011;49289;51.670;5.624;2022-11-23T01:50:11;7.60;;;2.20;;
63193;SDS011;49289;51.670;5.624;2022-11-23T01:52:00;10.50;;;2.50;;
63193;SDS011;49289;51.670;5.624;2022-11-23T01:53:48;8.00;;;2.40;;
63193;SDS011;49289;51.670;5.624;2022-11-23T01:55:33;7.80;;;2.00;;
63193;SDS011;49289;51.670;5.624;2022-11-23T01:57:22;7.70;;;2.20;;
63193;SDS011;49289;51.670;5.624;2022-11-23T01:59:10;10.60;;;2.80;;
63193;SDS011;49289;51.670;5.624;2022-11-23T02:00:58;7.00;;;2.50;;
63193;SDS011;49289;51.670;5.624;2022-11-23T02:02:46;11.30;;;2.30;;
63193;SDS011;49289;51.670;5.624;2022-11-23T02:04:35;7.80;;;2.10;;
63193;SDS011;49289;51.670;5.624;2022-11-23T02:06:21;7.60;;;2.20;;
63193;SDS011;49289;51.670;5.624;2022-11-23T02:08:08;6.70;;;2.50;;
63193;SDS011;49289;51.670;5.624;2022-11-23T02:09:56;5.80;;;1.90;;
63193;SDS011;49289;51.670;5.624;2022-11-23T02:11:44;7.60;;;1.90;;
63193;SDS011;49289;51.670;5.624;2022-11-23T02:13:32;9.00;;;2.20;;
63193;SDS011;49289;51.670;5.624;2022-11-23T02:15:20;9.20;;;2.00;;
63193;SDS011;49289;51.670;5.624;2022-11-23T02:17:09;8.60;;;2.10;;
63193;SDS011;49289;51.670;5.624;2022-11-23T02:18:57;9.50;;;2.10;;
63193;SDS011;49289;51.670;5.624;2022-11-23T02:20:45;7.80;;;2.10;;
63193;SDS011;49289;51.670;5.624;2022-11-23T02:22:34;11.20;;;2.30;;
63193;SDS011;49289;51.670;5.624;2022-11-23T02:24:23;7.40;;;2.20;;
63193;SDS011;49289;51.670;5.624;2022-11-23T02:26:12;7.00;;;2.10;;
63193;SDS011;49289;51.670;5.624;2022-11-23T02:28:00;6.00;;;1.90;;
63193;SDS011;49289;51.670;5.624;2022-11-23T02:29:47;5.60;;;2.00;;
63193;SDS011;49289;51.670;5.624;2022-11-23T02:31:34;6.70;;;2.20;;
63193;SDS011;49289;51.670;5.624;2022-11-23T02:33:21;8.80;;;2.20;;
63193;SDS011;49289;51.670;5.624;2022-11-23T02:35:08;9.30;;;2.10;;
63193;SDS011;49289;51.670;5.624;2022-11-23T02:36:56;7.80;;;2.70;;
63193;SDS011;49289;51.670;5.624;2022-11-23T02:38:44;8.50;;;2.30;;
63193;SDS011;49289;51.670;5.624;2022-11-23T02:40:34;7.60;;;2.80;;
63193;SDS011;49289;51.670;5.624;2022-11-23T02:42:20;8.90;;;2.30;;
63193;SDS011;49289;51.670;5.624;2022-11-23T02:44:11;5.60;;;1.90;;
63193;SDS011;49289;51.670;5.624;2022-11-23T02:45:58;8.20;;;2.10;;
63193;SDS011;49289;51.670;5.624;2022-11-23T02:47:45;7.50;;;2.20;;
63193;SDS011;49289;51.670;5.624;2022-11-23T02:49:33;8.50;;;2.30;;
63193;SDS011;49289;51.670;5.624;2022-11-23T02:51:20;8.50;;;2.00;;
63193;SDS011;49289;51.670;5.624;2022-11-23T02:53:07;7.90;;;1.90;;
63193;SDS011;49289;51.670;5.624;2022-11-23T02:54:54;8.80;;;2.30;;
63193;SDS011;49289;51.670;5.624;2022-11-23T02:56:41;6.30;;;2.00;;
63193;SDS011;49289;51.670;5.624;2022-11-23T02:58:29;9.60;;;2.10;;
63193;SDS011;49289;51.670;5.624;2022-11-23T03:02:05;10.00;;;2.20;;
63193;SDS011;49289;51.670;5.624;2022-11-23T03:03:52;10.90;;;2.60;;
63193;SDS011;49289;51.670;5.624;2022-11-23T03:05:39;9.00;;;2.20;;
63193;SDS011;49289;51.670;5.624;2022-11-23T03:07:26;10.10;;;2.30;;
63193;SDS011;49289;51.670;5.624;2022-11-23T03:09:13;10.10;;;2.60;;
63193;SDS011;49289;51.670;5.624;2022-11-23T03:11:00;7.30;;;2.10;;
63193;SDS011;49289;51.670;5.624;2022-11-23T03:12:47;9.50;;;2.30;;
63193;SDS011;49289;51.670;5.624;2022-11-23T03:14:34;9.50;;;2.50;;
63193;SDS011;49289;51.670;5.624;2022-11-23T03:16:21;10.40;;;2.60;;
63193;SDS011;49289;51.670;5.624;2022-11-23T03:18:08;11.10;;;2.80;;
63193;SDS011;49289;51.670;5.624;2022-11-23T03:19:56;11.10;;;2.50;;
63193;SDS011;49289;51.670;5.624;2022-11-23T03:21:44;8.30;;;2.40;;
63193;SDS011;49289;51.670;5.624;2022-11-23T03:23:32;7.30;;;2.00;;
63193;SDS011;49289;51.670;5.624;2022-11-23T03:25:21;7.60;;;2.50;;
63193;SDS011;49289;51.670;5.624;2022-11-23T03:27:09;10.30;;;2.40;;
63193;SDS011;49289;51.670;5.624;2022-11-23T03:28:57;7.80;;;2.40;;
63193;SDS011;49289;51.670;5.624;2022-11-23T03:30:44;9.10;;;2.40;;
63193;SDS011;49289;51.670;5.624;2022-11-23T03:32:32;9.30;;;2.80;;
63193;SDS011;49289;51.670;5.624;2022-11-23T03:34:21;5.60;;;2.00;;
63193;SDS011;49289;51.670;5.624;2022-11-23T03:36:09;9.10;;;2.30;;
63193;SDS011;49289;51.670;5.624;2022-11-23T03:37:57;8.50;;;2.10;;
63193;SDS011;49289;51.670;5.624;2022-11-23T03:39:45;8.80;;;2.20;;
63193;SDS011;49289;51.670;5.624;2022-11-23T03:41:33;6.30;;;2.10;;
63193;SDS011;49289;51.670;5.624;2022-11-23T03:43:21;7.50;;;2.00;;
63193;SDS011;49289;51.670;5.624;2022-11-23T03:45:08;8.40;;;2.20;;
63193;SDS011;49289;51.670;5.624;2022-11-23T03:46:56;6.20;;;2.10;;
63193;SDS011;49289;51.670;5.624;2022-11-23T03:48:44;10.10;;;3.00;;
63193;SDS011;49289;51.670;5.624;2022-11-23T03:50:33;8.50;;;2.10;;
63193;SDS011;49289;51.670;5.624;2022-11-23T03:52:21;8.80;;;2.40;;
63193;SDS011;49289;51.670;5.624;2022-11-23T03:54:09;10.00;;;2.30;;
63193;SDS011;49289;51.670;5.624;2022-11-23T03:55:57;9.50;;;2.30;;
63193;SDS011;49289;51.670;5.624;2022-11-23T03:57:44;7.40;;;2.10;;
63193;SDS011;49289;51.670;5.624;2022-11-23T03:59:33;9.70;;;2.20;;
63193;SDS011;49289;51.670;5.624;2022-11-23T04:01:21;9.20;;;2.50;;
63193;SDS011;49289;51.670;5.624;2022-11-23T04:03:09;7.10;;;2.20;;
63193;SDS011;49289;51.670;5.624;2022-11-23T04:04:57;10.80;;;2.20;;
63193;SDS011;49289;51.670;5.624;2022-11-23T04:06:45;11.10;;;2.50;;
63193;SDS011;49289;51.670;5.624;2022-11-23T04:08:33;7.10;;;2.20;;
63193;SDS011;49289;51.670;5.624;2022-11-23T04:09:31;7.90;;;2.40;;
63193;SDS011;49289;51.670;5.624;2022-11-23T04:11:18;9.70;;;2.40;;
63193;SDS011;49289;51.670;5.624;2022-11-23T04:13:05;8.30;;;2.20;;
63193;SDS011;49289;51.670;5.624;2022-11-23T04:14:52;7.40;;;2.30;;
63193;SDS011;49289;51.670;5.624;2022-11-23T04:16:39;7.40;;;2.00;;
63193;SDS011;49289;51.670;5.624;2022-11-23T04:18:27;8.40;;;2.00;;
63193;SDS011;49289;51.670;5.624;2022-11-23T04:20:16;9.20;;;2.50;;
63193;SDS011;49289;51.670;5.624;2022-11-23T04:22:04;10.20;;;2.40;;
63193;SDS011;49289;51.670;5.624;2022-11-23T04:23:52;7.30;;;2.00;;
63193;SDS011;49289;51.670;5.624;2022-11-23T04:25:40;9.80;;;2.30;;
63193;SDS011;49289;51.670;5.624;2022-11-23T04:27:29;9.70;;;2.30;;
63193;SDS011;49289;51.670;5.624;2022-11-23T04:29:17;8.20;;;2.00;;
63193;SDS011;49289;51.670;5.624;2022-11-23T04:31:06;7.30;;;2.00;;
63193;SDS011;49289;51.670;5.624;2022-11-23T04:32:53;8.40;;;2.10;;
63193;SDS011;49289;51.670;5.624;2022-11-23T04:34:42;9.80;;;2.30;;
63193;SDS011;49289;51.670;5.624;2022-11-23T04:36:29;11.10;;;2.20;;
63193;SDS011;49289;51.670;5.624;2022-11-23T04:38:16;7.90;;;2.00;;
63193;SDS011;49289;51.670;5.624;2022-11-23T04:40:03;9.90;;;2.40;;
63193;SDS011;49289;51.670;5.624;2022-11-23T04:41:51;10.60;;;2.10;;
63193;SDS011;49289;51.670;5.624;2022-11-23T04:43:39;9.20;;;2.10;;
63193;SDS011;49289;51.670;5.624;2022-11-23T04:45:26;6.20;;;2.10;;
63193;SDS011;49289;51.670;5.624;2022-11-23T04:46:25;8.30;;;2.20;;
63193;SDS011;49289;51.670;5.624;2022-11-23T04:48:13;10.40;;;2.00;;
63193;SDS011;49289;51.670;5.624;2022-11-23T04:50:01;7.20;;;2.50;;
63193;SDS011;49289;51.670;5.624;2022-11-23T04:51:49;7.20;;;2.20;;
63193;SDS011;49289;51.670;5.624;2022-11-23T04:53:36;10.70;;;2.50;;
63193;SDS011;49289;51.670;5.624;2022-11-23T04:55:25;6.30;;;2.20;;
63193;SDS011;49289;51.670;5.624;2022-11-23T04:57:12;8.10;;;2.10;;
63193;SDS011;49289;51.670;5.624;2022-11-23T04:59:01;9.00;;;2.30;;
63193;SDS011;49289;51.670;5.624;2022-11-23T05:00:49;7.40;;;2.10;;
63193;SDS011;49289;51.670;5.624;2022-11-23T05:02:37;11.20;;;2.30;;
63193;SDS011;49289;51.670;5.624;2022-11-23T05:04:25;7.60;;;2.10;;
63193;SDS011;49289;51.670;5.624;2022-11-23T05:06:13;8.80;;;2.20;;
63193;SDS011;49289;51.670;5.624;2022-11-23T05:08:01;6.60;;;1.90;;
63193;SDS011;49289;51.670;5.624;2022-11-23T05:09:48;8.70;;;2.60;;
63193;SDS011;49289;51.670;5.624;2022-11-23T05:11:35;7.70;;;2.30;;
63193;SDS011;49289;51.670;5.624;2022-11-23T05:13:22;11.90;;;2.40;;
63193;SDS011;49289;51.670;5.624;2022-11-23T05:15:09;11.20;;;2.30;;
63193;SDS011;49289;51.670;5.624;2022-11-23T05:16:58;7.80;;;2.40;;
63193;SDS011;49289;51.670;5.624;2022-11-23T05:18:46;9.30;;;2.40;;
63193;SDS011;49289;51.670;5.624;2022-11-23T05:20:33;7.10;;;2.10;;
63193;SDS011;49289;51.670;5.624;2022-11-23T05:22:20;9.00;;;2.10;;
63193;SDS011;49289;51.670;5.624;2022-11-23T05:24:07;9.80;;;2.60;;
63193;SDS011;49289;51.670;5.624;2022-11-23T05:25:56;5.80;;;2.00;;
63193;SDS011;49289;51.670;5.624;2022-11-23T05:27:44;9.30;;;2.20;;
63193;SDS011;49289;51.670;5.624;2022-11-23T05:29:32;11.90;;;2.70;;
63193;SDS011;49289;51.670;5.624;2022-11-23T05:31:21;12.10;;;2.80;;
63193;SDS011;49289;51.670;5.624;2022-11-23T05:33:09;12.40;;;2.50;;
63193;SDS011;49289;51.670;5.624;2022-11-23T05:34:57;10.30;;;2.30;;
63193;SDS011;49289;51.670;5.624;2022-11-23T05:36:45;9.50;;;2.40;;
63193;SDS011;49289;51.670;5.624;2022-11-23T05:38:32;12.30;;;2.50;;
63193;SDS011;49289;51.670;5.624;2022-11-23T05:40:20;15.70;;;2.60;;
63193;SDS011;49289;51.670;5.624;2022-11-23T05:42:07;10.80;;;2.50;;
63193;SDS011;49289;51.670;5.624;2022-11-23T05:43:54;9.80;;;2.10;;
63193;SDS011;49289;51.670;5.624;2022-11-23T05:45:41;9.50;;;2.30;;
63193;SDS011;49289;51.670;5.624;2022-11-23T05:47:28;8.00;;;2.50;;
63193;SDS011;49289;51.670;5.624;2022-11-23T05:49:15;9.60;;;2.60;;
63193;SDS011;49289;51.670;5.624;2022-11-23T05:51:03;15.00;;;3.10;;
63193;SDS011;49289;51.670;5.624;2022-11-23T05:52:52;8.30;;;3.00;;
63193;SDS011;49289;51.670;5.624;2022-11-23T05:54:40;7.20;;;2.20;;
63193;SDS011;49289;51.670;5.624;2022-11-23T05:56:27;13.80;;;2.80;;
63193;SDS011;49289;51.670;5.624;2022-11-23T05:58:14;12.50;;;3.60;;
63193;SDS011;49289;51.670;5.624;2022-11-23T06:00:01;13.30;;;3.80;;
63193;SDS011;49289;51.670;5.624;2022-11-23T06:01:48;12.60;;;3.20;;
63193;SDS011;49289;51.670;5.624;2022-11-23T06:03:35;13.20;;;3.40;;
63193;SDS011;49289;51.670;5.624;2022-11-23T06:05:23;13.60;;;3.40;;
63193;SDS011;49289;51.670;5.624;2022-11-23T06:07:11;10.50;;;3.40;;
63193;SDS011;49289;51.670;5.624;2022-11-23T06:08:59;11.80;;;3.30;;
63193;SDS011;49289;51.670;5.624;2022-11-23T06:10:47;10.80;;;3.20;;
63193;SDS011;49289;51.670;5.624;2022-11-23T06:12:36;10.40;;;2.90;;
63193;SDS011;49289;51.670;5.624;2022-11-23T06:14:24;10.50;;;3.20;;
63193;SDS011;49289;51.670;5.624;2022-11-23T06:16:12;11.50;;;3.60;;
63193;SDS011;49289;51.670;5.624;2022-11-23T06:18:03;12.60;;;2.90;;
63193;SDS011;49289;51.670;5.624;2022-11-23T06:19:50;10.90;;;2.80;;
63193;SDS011;49289;51.670;5.624;2022-11-23T06:21:37;12.90;;;3.00;;
63193;SDS011;49289;51.670;5.624;2022-11-23T06:23:24;10.50;;;2.50;;
63193;SDS011;49289;51.670;5.624;2022-11-23T06:25:11;16.10;;;3.20;;
63193;SDS011;49289;51.670;5.624;2022-11-23T06:26:59;9.90;;;2.60;;
63193;SDS011;49289;51.670;5.624;2022-11-23T06:28:47;12.10;;;2.50;;
63193;SDS011;49289;51.670;5.624;2022-11-23T06:30:35;8.90;;;2.40;;
63193;SDS011;49289;51.670;5.624;2022-11-23T06:32:24;9.10;;;2.20;;
63193;SDS011;49289;51.670;5.624;2022-11-23T06:34:11;9.60;;;2.30;;
63193;SDS011;49289;51.670;5.624;2022-11-23T06:36:00;11.60;;;2.80;;
63193;SDS011;49289;51.670;5.624;2022-11-23T06:37:48;12.80;;;2.90;;
63193;SDS011;49289;51.670;5.624;2022-11-23T06:39:35;12.70;;;2.40;;
63193;SDS011;49289;51.670;5.624;2022-11-23T06:41:22;9.60;;;2.40;;
63193;SDS011;49289;51.670;5.624;2022-11-23T06:43:09;10.30;;;2.20;;
63193;SDS011;49289;51.670;5.624;2022-11-23T06:44:56;12.60;;;2.70;;
63193;SDS011;49289;51.670;5.624;2022-11-23T06:46:43;8.60;;;2.30;;
63193;SDS011;49289;51.670;5.624;2022-11-23T06:48:30;8.70;;;2.30;;
63193;SDS011;49289;51.670;5.624;2022-11-23T06:50:17;18.90;;;3.00;;
63193;SDS011;49289;51.670;5.624;2022-11-23T06:52:04;11.70;;;2.30;;
63193;SDS011;49289;51.670;5.624;2022-11-23T06:53:51;12.60;;;2.50;;
63193;SDS011;49289;51.670;5.624;2022-11-23T06:55:38;10.60;;;2.70;;
63193;SDS011;49289;51.670;5.624;2022-11-23T06:57:25;13.00;;;2.60;;
63193;SDS011;49289;51.670;5.624;2022-11-23T06:59:12;8.00;;;2.30;;
63193;SDS011;49289;51.670;5.624;2022-11-23T07:01:04;10.80;;;2.50;;
63193;SDS011;49289;51.670;5.624;2022-11-23T07:02:55;7.70;;;2.50;;
63193;SDS011;49289;51.670;5.624;2022-11-23T07:04:42;12.70;;;2.70;;
63193;SDS011;49289;51.670;5.624;2022-11-23T07:06:29;10.60;;;2.40;;
63193;SDS011;49289;51.670;5.624;2022-11-23T07:08:16;13.10;;;2.30;;
63193;SDS011;49289;51.670;5.624;2022-11-23T07:10:03;8.50;;;2.80;;
63193;SDS011;49289;51.670;5.624;2022-11-23T07:11:51;10.10;;;2.30;;
63193;SDS011;49289;51.670;5.624;2022-11-23T07:13:38;10.10;;;2.20;;
63193;SDS011;49289;51.670;5.624;2022-11-23T07:15:26;11.50;;;2.80;;
63193;SDS011;49289;51.670;5.624;2022-11-23T07:17:14;12.30;;;2.30;;
63193;SDS011;49289;51.670;5.624;2022-11-23T07:19:02;9.70;;;2.30;;
63193;SDS011;49289;51.670;5.624;2022-11-23T07:20:50;13.20;;;2.20;;
63193;SDS011;49289;51.670;5.624;2022-11-23T07:22:38;14.40;;;2.60;;
63193;SDS011;49289;51.670;5.624;2022-11-23T07:24:26;9.50;;;2.20;;
63193;SDS011;49289;51.670;5.624;2022-11-23T07:26:14;9.70;;;2.30;;
63193;SDS011;49289;51.670;5.624;2022-11-23T07:28:02;8.90;;;2.10;;
63193;SDS011;49289;51.670;5.624;2022-11-23T07:29:49;9.90;;;2.60;;
63193;SDS011;49289;51.670;5.624;2022-11-23T07:31:36;12.40;;;2.20;;
63193;SDS011;49289;51.670;5.624;2022-11-23T07:33:23;13.80;;;2.50;;
63193;SDS011;49289;51.670;5.624;2022-11-23T07:35:11;10.40;;;2.40;;
63193;SDS011;49289;51.670;5.624;2022-11-23T07:36:59;10.30;;;2.30;;
63193;SDS011;49289;51.670;5.624;2022-11-23T07:38:47;9.30;;;2.10;;
63193;SDS011;49289;51.670;5.624;2022-11-23T07:40:35;14.50;;;2.20;;
63193;SDS011;49289;51.670;5.624;2022-11-23T07:42:23;8.60;;;1.80;;
63193;SDS011;49289;51.670;5.624;2022-11-23T07:44:10;9.30;;;2.00;;
63193;SDS011;49289;51.670;5.624;2022-11-23T07:45:59;14.40;;;2.70;;
63193;SDS011;49289;51.670;5.624;2022-11-23T07:47:46;10.50;;;2.50;;
63193;SDS011;49289;51.670;5.624;2022-11-23T07:49:33;13.50;;;2.80;;
63193;SDS011;49289;51.670;5.624;2022-11-23T07:51:20;6.20;;;2.00;;
63193;SDS011;49289;51.670;5.624;2022-11-23T07:53:09;8.00;;;2.40;;
63193;SDS011;49289;51.670;5.624;2022-11-23T07:54:54;11.80;;;2.70;;
63193;SDS011;49289;51.670;5.624;2022-11-23T07:56:42;11.70;;;2.00;;
63193;SDS011;49289;51.670;5.624;2022-11-23T07:58:29;10.00;;;2.10;;
63193;SDS011;49289;51.670;5.624;2022-11-23T08:00:17;9.10;;;2.50;;
63193;SDS011;49289;51.670;5.624;2022-11-23T08:02:04;9.10;;;2.00;;
63193;SDS011;49289;51.670;5.624;2022-11-23T08:03:52;11.60;;;3.00;;
63193;SDS011;49289;51.670;5.624;2022-11-23T08:05:39;13.00;;;2.60;;
63193;SDS011;49289;51.670;5.624;2022-11-23T08:07:26;13.10;;;2.20;;
63193;SDS011;49289;51.670;5.624;2022-11-23T08:09:14;9.60;;;2.60;;
63193;SDS011;49289;51.670;5.624;2022-11-23T08:11:02;8.50;;;2.30;;
63193;SDS011;49289;51.670;5.624;2022-11-23T08:12:50;5.60;;;1.80;;
63193;SDS011;49289;51.670;5.624;2022-11-23T08:14:38;10.10;;;2.20;;
63193;SDS011;49289;51.670;5.624;2022-11-23T08:16:26;12.00;;;2.20;;
63193;SDS011;49289;51.670;5.624;2022-11-23T08:18:15;11.10;;;2.00;;
63193;SDS011;49289;51.670;5.624;2022-11-23T08:20:02;10.90;;;2.10;;
63193;SDS011;49289;51.670;5.624;2022-11-23T08:21:50;10.30;;;1.90;;
63193;SDS011;49289;51.670;5.624;2022-11-23T08:23:37;11.60;;;2.10;;
63193;SDS011;49289;51.670;5.624;2022-11-23T08:25:25;7.40;;;2.00;;
63193;SDS011;49289;51.670;5.624;2022-11-23T08:27:12;10.90;;;2.30;;
63193;SDS011;49289;51.670;5.624;2022-11-23T08:29:00;8.90;;;2.40;;
63193;SDS011;49289;51.670;5.624;2022-11-23T08:30:48;8.80;;;2.00;;
63193;SDS011;49289;51.670;5.624;2022-11-23T08:32:36;9.70;;;2.00;;
63193;SDS011;49289;51.670;5.624;2022-11-23T08:34:24;18.40;;;2.70;;
63193;SDS011;49289;51.670;5.624;2022-11-23T08:36:13;8.60;;;2.20;;
63193;SDS011;49289;51.670;5.624;2022-11-23T08:37:58;9.00;;;2.00;;
63193;SDS011;49289;51.670;5.624;2022-11-23T08:39:45;12.30;;;2.10;;
63193;SDS011;49289;51.670;5.624;2022-11-23T08:41:33;10.00;;;2.50;;
63193;SDS011;49289;51.670;5.624;2022-11-23T08:43:20;10.20;;;2.20;;
63193;SDS011;49289;51.670;5.624;2022-11-23T08:45:07;13.90;;;2.40;;
63193;SDS011;49289;51.670;5.624;2022-11-23T08:46:56;8.10;;;2.00;;
63193;SDS011;49289;51.670;5.624;2022-11-23T08:48:43;11.90;;;2.60;;
63193;SDS011;49289;51.670;5.624;2022-11-23T08:50:30;11.40;;;2.10;;
63193;SDS011;49289;51.670;5.624;2022-11-23T08:52:17;7.80;;;2.20;;
63193;SDS011;49289;51.670;5.624;2022-11-23T08:54:04;7.80;;;2.20;;
63193;SDS011;49289;51.670;5.624;2022-11-23T08:55:51;8.60;;;2.30;;
63193;SDS011;49289;51.670;5.624;2022-11-23T08:57:39;10.40;;;2.10;;
63193;SDS011;49289;51.670;5.624;2022-11-23T08:59:27;8.70;;;2.00;;
63193;SDS011;49289;51.670;5.624;2022-11-23T09:01:15;10.60;;;2.30;;
63193;SDS011;49289;51.670;5.624;2022-11-23T09:03:02;6.40;;;1.90;;
63193;SDS011;49289;51.670;5.624;2022-11-23T09:04:52;11.30;;;2.80;;
63193;SDS011;49289;51.670;5.624;2022-11-23T09:06:40;7.20;;;1.80;;
63193;SDS011;49289;51.670;5.624;2022-11-23T09:08:29;8.50;;;1.90;;
63193;SDS011;49289;51.670;5.624;2022-11-23T09:10:16;6.30;;;2.00;;
63193;SDS011;49289;51.670;5.624;2022-11-23T09:12:03;9.30;;;1.80;;
63193;SDS011;49289;51.670;5.624;2022-11-23T09:13:51;10.80;;;2.90;;
63193;SDS011;49289;51.670;5.624;2022-11-23T09:15:39;9.70;;;2.10;;
63193;SDS011;49289;51.670;5.624;2022-11-23T09:17:27;11.80;;;2.20;;
63193;SDS011;49289;51.670;5.624;2022-11-23T09:19:16;5.70;;;1.60;;
63193;SDS011;49289;51.670;5.624;2022-11-23T09:21:03;10.10;;;2.30;;
63193;SDS011;49289;51.670;5.624;2022-11-23T09:22:55;11.40;;;2.30;;
63193;SDS011;49289;51.670;5.624;2022-11-23T09:24:41;13.20;;;2.70;;
63193;SDS011;49289;51.670;5.624;2022-11-23T09:26:29;9.30;;;2.90;;
63193;SDS011;49289;51.670;5.624;2022-11-23T09:28:17;8.40;;;2.10;;
63193;SDS011;49289;51.670;5.624;2022-11-23T09:30:04;9.80;;;2.10;;
63193;SDS011;49289;51.670;5.624;2022-11-23T09:31:52;10.10;;;1.90;;
63193;SDS011;49289;51.670;5.624;2022-11-23T09:33:40;11.10;;;2.10;;
63193;SDS011;49289;51.670;5.624;2022-11-23T09:35:29;12.50;;;2.30;;
63193;SDS011;49289;51.670;5.624;2022-11-23T09:37:16;8.30;;;2.40;;
63193;SDS011;49289;51.670;5.624;2022-11-23T09:39:04;11.00;;;2.00;;
63193;SDS011;49289;51.670;5.624;2022-11-23T09:40:54;8.80;;;2.20;;
63193;SDS011;49289;51.670;5.624;2022-11-23T09:42:44;7.60;;;2.20;;
63193;SDS011;49289;51.670;5.624;2022-11-23T09:44:42;11.90;;;2.10;;
63193;SDS011;49289;51.670;5.624;2022-11-23T09:46:32;8.70;;;2.00;;
63193;SDS011;49289;51.670;5.624;2022-11-23T09:48:33;10.10;;;2.20;;
63193;SDS011;49289;51.670;5.624;2022-11-23T09:50:28;8.80;;;2.00;;
63193;SDS011;49289;51.670;5.624;2022-11-23T09:52:16;12.60;;;2.30;;
63193;SDS011;49289;51.670;5.624;2022-11-23T09:54:03;9.00;;;2.20;;
63193;SDS011;49289;51.670;5.624;2022-11-23T09:55:51;7.10;;;2.30;;
63193;SDS011;49289;51.670;5.624;2022-11-23T09:57:39;9.40;;;2.10;;
63193;SDS011;49289;51.670;5.624;2022-11-23T09:59:30;7.90;;;2.00;;
63193;SDS011;49289;51.670;5.624;2022-11-23T10:01:16;7.70;;;2.10;;
63193;SDS011;49289;51.670;5.624;2022-11-23T10:03:03;7.90;;;1.80;;
63193;SDS011;49289;51.670;5.624;2022-11-23T10:04:50;8.00;;;1.60;;
63193;SDS011;49289;51.670;5.624;2022-11-23T10:06:39;10.30;;;2.30;;
63193;SDS011;49289;51.670;5.624;2022-11-23T10:08:27;9.10;;;2.00;;
63193;SDS011;49289;51.670;5.624;2022-11-23T10:10:18;5.70;;;1.80;;
63193;SDS011;49289;51.670;5.624;2022-11-23T10:12:10;8.50;;;2.00;;
63193;SDS011;49289;51.670;5.624;2022-11-23T10:14:01;10.20;;;1.80;;
63193;SDS011;49289;51.670;5.624;2022-11-23T10:15:50;5.60;;;1.70;;
63193;SDS011;49289;51.670;5.624;2022-11-23T10:17:44;8.20;;;1.80;;
63193;SDS011;49289;51.670;5.624;2022-11-23T10:19:52;10.50;;;2.20;;
63193;SDS011;49289;51.670;5.624;2022-11-23T10:21:43;6.30;;;1.90;;
63193;SDS011;49289;51.670;5.624;2022-11-23T10:23:33;7.30;;;1.70;;
63193;SDS011;49289;51.670;5.624;2022-11-23T10:25:35;9.60;;;1.80;;
63193;SDS011;49289;51.670;5.624;2022-11-23T10:27:22;5.50;;;1.70;;
63193;SDS011;49289;51.670;5.624;2022-11-23T10:29:14;7.60;;;1.80;;
63193;SDS011;49289;51.670;5.624;2022-11-23T10:31:02;4.90;;;1.70;;
63193;SDS011;49289;51.670;5.624;2022-11-23T10:32:49;8.20;;;2.10;;
63193;SDS011;49289;51.670;5.624;2022-11-23T10:34:43;6.80;;;1.70;;
63193;SDS011;49289;51.670;5.624;2022-11-23T10:36:31;6.40;;;2.00;;
63193;SDS011;49289;51.670;5.624;2022-11-23T10:38:20;8.70;;;1.90;;
63193;SDS011;49289;51.670;5.624;2022-11-23T10:40:09;8.00;;;1.80;;
63193;SDS011;49289;51.670;5.624;2022-11-23T10:42:00;5.90;;;1.60;;
63193;SDS011;49289;51.670;5.624;2022-11-23T10:43:47;6.30;;;1.40;;
63193;SDS011;49289;51.670;5.624;2022-11-23T10:45:35;7.80;;;1.80;;
63193;SDS011;49289;51.670;5.624;2022-11-23T10:49:24;7.30;;;2.10;;